Time;durP1;ratioP1;P1;durP2;ratioP2;P2;SDS_P1;SDS_P2;PMS_P1;PMS_P2;Temp;Humidity;BMP_temperature;BMP_pressure;BME280_temperature;BME280_humidity;BME280_pressure;Samples;Min_cycle;Max_cycle;Signal;HPM_P1;HPM_P2
2022/12/08 00:02:43;;;;;;;;;;;;;;;4.01;90.10;100242.81;4917983;29;20528;-81
2022/12/08 00:09:23;;;;;;;12.43;6.45;;;;;;;3.95;90.47;100228.28;4917345;29;20051;-82
2022/12/08 00:12:26;;;;;;;;;;;;;;;3.91;90.36;100234.47;4917869;29;20051;-81
2022/12/08 00:15:29;;;;;;;11.95;6.60;;;;;;;3.87;90.71;100231.13;4927694;29;20104;-81
2022/12/08 00:18:32;;;;;;;8.50;5.60;;;;;;;3.97;90.45;100224.78;4917261;29;20418;-81
2022/12/08 00:21:35;;;;;;;;;;;;;;;3.95;90.66;100226.56;4917607;29;20127;-81
2022/12/08 00:24:43;;;;;;;7.97;5.45;;;;;;;3.94;90.12;100230.03;4916526;29;20500;-81
2022/12/08 00:27:47;;;;;;;10.75;5.53;;;;;;;4.11;89.54;100223.50;4926990;29;20520;-81
2022/12/08 00:30:53;;;;;;;9.80;5.18;;;;;;;4.13;89.35;100216.56;4917121;29;20054;-82
2022/12/08 00:33:58;;;;;;;9.63;5.80;;;;;;;4.07;90.10;100225.34;4913623;29;20039;-81
2022/12/08 00:37:01;;;;;;;10.93;6.07;;;;;;;3.97;89.96;100214.44;4913319;29;20055;-81
2022/12/08 00:40:05;;;;;;;11.45;6.53;;;;;;;3.95;89.65;100210.19;4911792;29;20052;-81
2022/12/08 00:43:10;;;;;;;11.18;6.43;;;;;;;3.86;90.32;100210.47;4916261;29;20051;-82
2022/12/08 00:46:13;;;;;;;9.85;5.43;;;;;;;3.72;91.30;100211.72;4908992;29;20051;-83
2022/12/08 00:49:16;;;;;;;;;;;;;;;3.80;90.65;100208.94;4917207;29;20063;-83
2022/12/08 00:52:20;;;;;;;10.68;5.53;;;;;;;3.77;90.80;100198.69;4901032;29;20396;-83
2022/12/08 00:55:25;;;;;;;11.20;6.10;;;;;;;4.00;90.04;100192.81;4897545;29;20101;-83
2022/12/08 00:58:28;;;;;;;11.80;6.35;;;;;;;4.15;89.38;100189.75;4897628;29;20053;-83
2022/12/08 01:01:34;;;;;;;9.80;5.97;;;;;;;4.08;89.53;100195.97;4897919;29;20570;-82
2022/12/08 01:04:38;;;;;;;7.75;5.50;;;;;;;3.92;90.05;100193.06;4897416;29;20042;-82
2022/12/08 01:07:41;;;;;;;8.13;5.13;;;;;;;4.07;90.30;100190.88;4897377;29;20173;-82
2022/12/08 01:10:46;;;;;;;11.05;6.35;;;;;;;4.14;89.63;100194.97;4897188;29;20051;-82
2022/12/08 01:13:49;;;;;;;9.80;6.35;;;;;;;4.10;89.56;100183.00;4897424;29;20100;-83
2022/12/08 01:16:55;;;;;;;12.05;7.40;;;;;;;4.05;89.80;100179.72;4897815;29;20044;-83
2022/12/08 01:19:58;;;;;;;;;;;;;;;4.00;89.55;100185.03;4897668;29;20051;-84
2022/12/08 01:23:02;;;;;;;9.02;6.20;;;;;;;3.99;89.71;100185.06;4897317;29;19968;-84
2022/12/08 01:26:07;;;;;;;10.00;5.85;;;;;;;3.94;90.71;100187.81;4897224;29;20072;-83
2022/12/08 01:29:12;;;;;;;9.27;5.75;;;;;;;3.92;89.95;100187.88;4897024;29;20051;-83
2022/12/08 01:32:17;;;;;;;9.57;5.68;;;;;;;3.82;90.38;100183.84;4896956;29;20047;-83
2022/12/08 01:35:20;;;;;;;9.00;5.80;;;;;;;3.96;89.99;100183.44;4896946;29;20101;-83
2022/12/08 01:38:25;;;;;;;9.75;6.10;;;;;;;3.99;89.71;100190.25;4896944;29;20498;-83
2022/12/08 01:41:31;;;;;;;9.63;5.45;;;;;;;3.92;89.78;100187.00;4897070;29;20083;-83
2022/12/08 01:44:40;;;;;;;7.45;5.47;;;;;;;4.11;89.22;100189.88;4896732;29;20048;-84
2022/12/08 01:47:48;;;;;;;10.30;6.25;;;;;;;4.05;89.46;100190.94;4897220;29;20509;-83
2022/12/08 01:50:54;;;;;;;9.55;6.10;;;;;;;4.20;89.34;100179.25;4896994;29;20411;-82
2022/12/08 01:53:59;;;;;;;8.77;5.47;;;;;;;3.98;89.78;100184.22;4896732;29;20051;-82
2022/12/08 01:57:05;;;;;;;8.65;5.90;;;;;;;3.95;90.16;100185.16;4896767;29;20426;-82
2022/12/08 02:00:15;;;;;;;9.45;5.35;;;;;;;3.91;90.24;100175.81;4896887;29;20048;-81
2022/12/08 02:03:28;;;;;;;9.23;4.95;;;;;;;3.96;90.21;100168.78;4896429;29;20059;-81
2022/12/08 02:06:40;;;;;;;9.02;5.40;;;;;;;4.00;89.80;100169.53;4896478;29;20109;-82
2022/12/08 02:09:45;;;;;;;11.02;5.93;;;;;;;4.11;89.57;100164.00;4912316;29;20098;-83
2022/12/08 02:12:51;;;;;;;10.07;6.00;;;;;;;4.03;90.39;100163.41;4934369;29;20048;-83
2022/12/08 02:16:03;;;;;;;10.18;5.70;;;;;;;4.01;90.01;100165.19;4933513;29;20050;-83
2022/12/08 02:19:07;;;;;;;10.98;6.47;;;;;;;4.11;89.56;100161.41;4934305;29;20054;-82
2022/12/08 02:22:17;;;;;;;8.63;6.45;;;;;;;3.86;90.29;100157.03;4934190;29;20090;-82
2022/12/08 02:25:37;;;;;;;7.90;6.25;;;;;;;3.90;90.94;100150.84;4934413;29;20090;-82
2022/12/08 02:29:08;;;;;;;10.90;6.05;;;;;;;4.11;90.22;100138.13;4934292;29;20178;-82
2022/12/08 02:32:43;;;;;;;13.23;6.75;;;;;;;4.11;89.73;100133.78;4934052;29;20075;-84
2022/12/08 02:35:55;;;;;;;12.45;6.55;;;;;;;4.02;90.61;100134.13;4934112;29;20054;-83
2022/12/08 02:39:28;;;;;;;8.38;5.88;;;;;;;4.01;90.34;100141.91;4933962;29;20058;-84
2022/12/08 02:42:43;;;;;;;8.88;6.18;;;;;;;3.93;90.67;100135.25;4897512;29;20066;-84
2022/12/08 02:45:54;;;;;;;11.20;6.63;;;;;;;4.04;90.72;100123.69;4933756;29;20106;-84
2022/12/08 02:49:04;;;;;;;12.63;7.35;;;;;;;3.87;90.94;100129.41;4933956;29;20051;-84
2022/12/08 02:52:10;;;;;;;16.63;5.97;;;;;;;3.94;90.45;100123.16;4934087;29;20051;-84
2022/12/08 02:55:28;;;;;;;9.60;7.00;;;;;;;3.88;90.70;100121.59;4933861;29;20039;-84
2022/12/08 02:59:12;;;;;;;13.05;6.88;;;;;;;3.96;90.56;100119.63;4934254;29;20099;-84
2022/12/08 03:02:48;;;;;;;12.38;5.80;;;;;;;3.93;90.11;100114.53;4933879;29;20047;-84
2022/12/08 03:06:11;;;;;;;12.95;6.43;;;;;;;3.72;90.76;100116.03;4932982;29;20051;-85
2022/12/08 03:09:30;;;;;;;9.50;5.90;;;;;;;3.83;90.58;100113.16;4933831;29;20176;-85
2022/12/08 03:12:42;;;;;;;10.18;6.47;;;;;;;3.89;90.21;100110.38;4933856;29;20123;-85
2022/12/08 03:16:18;;;;;;;9.35;5.93;;;;;;;3.94;90.10;100105.88;4935987;29;20055;-85
2022/12/08 03:19:47;;;;;;;11.35;6.30;;;;;;;4.03;89.95;100098.72;4937276;29;20051;-85
2022/12/08 03:22:57;;;;;;;13.15;6.38;;;;;;;3.93;90.04;100090.41;4937240;29;20098;-85
2022/12/08 03:26:13;;;;;;;12.73;6.68;;;;;;;3.88;89.88;100095.72;4937471;29;20087;-85
2022/12/08 03:29:25;;;;;;;9.35;6.45;;;;;;;3.86;89.61;100094.94;4937153;29;20047;-84
2022/12/08 03:32:49;;;;;;;12.57;6.95;;;;;;;3.68;90.39;100092.94;4937102;29;20102;-84
2022/12/08 03:36:06;;;;;;;11.38;6.90;;;;;;;3.90;89.91;100081.00;4946006;29;20055;-81
2022/12/08 03:39:11;;;;;;;10.07;7.05;;;;;;;3.82;90.08;100079.56;4936041;29;20111;-82
2022/12/08 03:42:14;;;;;;;14.95;8.35;;;;;;;3.84;90.40;100083.78;4936766;29;20051;-83
2022/12/08 03:45:18;;;;;;;13.38;7.00;;;;;;;3.75;90.63;100078.91;4947348;29;20106;-81
2022/12/08 03:48:21;;;;;;;10.55;7.32;;;;;;;3.83;90.09;100074.34;4936611;29;20505;-81
2022/12/08 03:51:26;;;;;;;14.07;7.28;;;;;;;3.76;90.79;100080.59;4937030;29;20114;-81
2022/12/08 03:54:30;;;;;;;11.38;6.53;;;;;;;3.76;90.84;100065.06;4936691;29;20043;-81
2022/12/08 03:57:33;;;;;;;12.43;6.63;;;;;;;3.73;90.69;100058.28;4936205;29;20046;-80
2022/12/08 04:00:37;;;;;;;13.02;7.63;;;;;;;3.80;91.00;100060.66;4936543;29;20050;-80
2022/12/08 04:03:42;;;;;;;12.68;7.88;;;;;;;3.71;91.28;100056.63;4935365;29;20090;-80
2022/12/08 04:06:46;;;;;;;18.15;8.07;;;;;;;3.67;91.15;100062.78;4936376;29;20127;-80
2022/12/08 04:09:49;;;;;;;12.85;7.68;;;;;;;3.83;90.75;100053.66;4936396;29;20516;-81
2022/12/08 04:12:53;;;;;;;16.00;9.02;;;;;;;3.92;90.44;100050.78;4935376;29;20098;-81
2022/12/08 04:15:56;;;;;;;;;;;;;;;4.04;89.88;100048.69;4937099;29;20076;-81
2022/12/08 04:18:59;;;;;;;14.93;9.30;;;;;;;3.81;90.38;100042.50;4936384;29;20006;-81
2022/12/08 04:22:02;;;;;;;15.70;9.23;;;;;;;3.88;89.89;100038.81;4936174;29;20058;-81
2022/12/08 04:25:06;;;;;;;;;;;;;;;4.02;89.59;100037.53;4936450;29;20051;-81
2022/12/08 04:28:09;;;;;;;22.45;13.88;;;;;;;3.95;90.28;100035.13;4935587;29;20006;-81
2022/12/08 04:31:12;;;;;;;15.35;10.07;;;;;;;3.86;90.78;100029.41;4935866;29;20536;-79
2022/12/08 04:34:16;;;;;;;19.05;10.43;;;;;;;3.88;90.83;100023.31;4936045;29;20167;-79
2022/12/08 04:37:19;;;;;;;19.75;9.45;;;;;;;3.92;90.64;100018.88;4936147;29;20147;-80
2022/12/08 04:40:23;;;;;;;20.02;9.98;;;;;;;3.79;91.20;100017.59;4935831;29;20094;-80
2022/12/08 04:43:26;;;;;;;17.13;9.05;;;;;;;3.76;90.75;100013.34;4935717;29;20512;-79
2022/12/08 04:46:29;;;;;;;;;;;;;;;3.72;91.02;100019.53;4935789;29;20067;-79
2022/12/08 04:49:34;;;;;;;10.40;7.32;;;;;;;3.81;90.74;100026.16;4935554;29;19922;-83
2022/12/08 04:52:39;;;;;;;11.85;7.93;;;;;;;3.60;91.30;100025.09;4935656;29;20047;-78
2022/12/08 04:55:43;;;;;;;12.18;7.72;;;;;;;3.76;90.69;100023.69;4935814;29;20463;-80
2022/12/08 04:58:47;;;;;;;8.50;6.70;;;;;;;3.91;89.87;100019.78;4935802;29;20051;-83
2022/12/08 05:01:50;;;;;;;;;;;;;;;3.80;90.12;100014.97;4935813;29;20074;-79
2022/12/08 05:04:53;;;;;;;7.63;6.07;;;;;;;3.73;90.57;100010.88;4935342;29;19974;-79
2022/12/08 05:08:00;;;;;;;7.57;5.68;;;;;;;3.84;90.11;100011.38;4935524;29;20082;-85
2022/12/08 05:11:07;;;;;;;10.18;7.50;;;;;;;3.91;89.58;100002.50;4934324;29;20095;-82
2022/12/08 05:14:12;;;;;;;9.13;6.97;;;;;;;3.81;90.41;100003.72;4935195;29;20170;-81
2022/12/08 05:17:19;;;;;;;7.25;4.80;;;;;;;3.75;89.22;100006.50;4935334;29;20083;-81
2022/12/08 05:20:22;;;;;;;12.70;5.57;;;;;;;4.01;88.98;100008.22;4935280;29;20107;-82
2022/12/08 05:23:26;;;;;;;;;;;;;;;3.74;89.58;100010.00;4935443;29;20054;-80
2022/12/08 05:27:21;;;;;;;8.38;5.90;;;;;;;3.67;90.29;100003.31;4910550;29;20014;-86
2022/12/08 05:30:25;;;;;;;10.10;5.45;;;;;;;3.68;89.46;100005.03;4912315;29;20039;-84
2022/12/08 05:37:25;;;;;;;8.15;4.97;;;;;;;3.71;89.97;100010.09;4893394;29;20096;-82
2022/12/08 05:40:30;;;;;;;9.43;6.15;;;;;;;3.79;90.21;99997.75;4898259;29;20059;-80
2022/12/08 05:43:35;;;;;;;9.95;5.20;;;;;;;3.79;89.42;99997.75;4912283;29;20106;-81
2022/12/08 05:46:38;;;;;;;12.27;7.20;;;;;;;3.93;88.98;99999.91;4910315;29;20071;-81
2022/12/08 05:49:41;;;;;;;8.48;5.15;;;;;;;4.04;89.15;99996.94;4910150;29;20146;-82
2022/12/08 05:52:44;;;;;;;9.23;6.10;;;;;;;3.95;89.35;99990.31;4911687;29;20491;-80
2022/12/08 05:55:48;;;;;;;6.18;4.63;;;;;;;3.85;89.66;99991.53;4918799;29;20095;-85
2022/12/08 06:03:45;;;;;;;10.77;4.13;;;;;;;3.97;89.07;99986.78;4970751;23;20110;-81
2022/12/08 06:06:51;;;;;;;10.90;4.88;;;;;;;4.13;88.81;99988.88;4923290;29;20075;-81
2022/12/08 06:09:58;;;;;;;11.48;3.97;;;;;;;4.05;88.96;99985.69;4930224;29;20051;-81
2022/12/08 06:13:03;;;;;;;9.90;6.47;;;;;;;3.97;89.07;99979.03;4929972;29;20046;-82
2022/12/08 06:16:06;;;;;;;;;;;;;;;4.20;88.47;99980.81;4929284;29;20268;-81
2022/12/08 06:19:09;;;;;;;7.90;5.27;;;;;;;4.07;88.87;99984.72;4920836;29;19970;-81
2022/12/08 06:22:14;;;;;;;9.25;4.72;;;;;;;3.96;89.60;99977.34;4913931;29;20090;-82
2022/12/08 06:25:17;;;;;;;7.43;4.63;;;;;;;4.02;89.44;99988.38;4929269;29;20131;-82
2022/12/08 06:28:24;;;;;;;7.47;3.95;;;;;;;3.96;89.72;99982.53;4912324;29;20042;-82
2022/12/08 06:31:27;;;;;;;7.10;4.38;;;;;;;3.93;90.19;99980.03;4912546;29;20133;-82
2022/12/08 06:34:31;;;;;;;;;;;;;;;3.94;89.76;99992.06;4919834;29;20572;-82
2022/12/08 06:37:36;;;;;;;6.80;4.55;;;;;;;4.05;90.30;99988.28;4931227;29;20423;-81
2022/12/08 06:40:43;;;;;;;8.23;4.20;;;;;;;3.94;90.36;99986.91;4930870;29;20102;-82
2022/12/08 06:43:46;;;;;;;9.90;4.63;;;;;;;3.99;90.27;99993.66;4927366;29;20103;-81
2022/12/08 06:46:49;;;;;;;8.27;6.38;;;;;;;4.10;89.63;99986.38;4911813;29;20537;-80
2022/12/08 06:49:53;;;;;;;7.82;4.85;;;;;;;4.02;89.72;99989.25;4912668;29;20104;-83
2022/12/08 06:53:00;;;;;;;9.07;5.90;;;;;;;4.14;89.27;99996.56;4924157;29;20095;-85
2022/12/08 06:56:07;;;;;;;9.88;4.70;;;;;;;4.18;89.33;99990.41;4925430;29;20094;-83
2022/12/08 06:59:11;;;;;;;7.38;4.82;;;;;;;4.15;89.42;99984.50;4934160;29;20049;-90
2022/12/08 07:02:18;;;;;;;10.20;5.47;;;;;;;4.24;89.52;99989.31;4934755;29;20102;-85
2022/12/08 07:09:00;;;;;;;13.57;5.00;;;;;;;4.10;90.49;99981.19;4874807;29;20056;-85
2022/12/08 07:12:28;;;;;;;10.18;5.00;;;;;;;4.07;90.73;99991.66;4876770;29;20043;-85
2022/12/08 07:15:47;;;;;;;6.60;4.45;;;;;;;4.11;90.68;99982.88;4879785;29;20103;-85
2022/12/08 07:19:03;;;;;;;11.80;4.47;;;;;;;4.02;90.79;99984.06;4873351;29;20308;-86
2022/12/08 07:22:16;;;;;;;11.73;5.10;;;;;;;4.11;91.42;99988.06;4877979;29;20051;-85
2022/12/08 07:25:24;;;;;;;9.55;4.82;;;;;;;4.05;91.61;99990.84;4878626;29;20097;-86
2022/12/08 07:28:40;;;;;;;9.93;8.23;;;;;;;4.29;90.04;99986.59;4890913;29;20143;-86
2022/12/08 07:31:49;;;;;;;11.35;4.72;;;;;;;4.16;90.77;99986.16;4889210;29;20080;-85
2022/12/08 07:34:57;;;;;;;9.98;5.45;;;;;;;4.27;90.36;99986.63;4886596;29;20465;-85
2022/12/08 07:38:20;;;;;;;;;;;;;;;;;;;;;
2022/12/08 07:41:45;;;;;;;10.18;5.43;;;;;;;4.22;90.86;99983.38;4886907;29;20068;-86
2022/12/08 07:45:10;;;;;;;6.35;4.53;;;;;;;4.15;90.86;99980.16;4882224;29;20100;-85
2022/12/08 07:48:37;;;;;;;7.30;5.30;;;;;;;4.27;90.56;99989.22;4878799;29;20047;-86
2022/12/08 07:51:42;;;;;;;11.20;4.90;;;;;;;4.28;90.85;99984.91;4872282;29;20621;-86
2022/12/08 07:55:06;;;;;;;11.38;6.35;;;;;;;4.32;90.30;99991.66;4869016;29;20595;-86
2022/12/08 07:58:20;;;;;;;6.40;5.10;;;;;;;4.18;91.07;99981.81;4860417;29;20049;-86
2022/12/08 08:01:29;;;;;;;8.52;5.35;;;;;;;4.32;91.54;99989.06;4869317;29;20048;-81
2022/12/08 08:04:33;;;;;;;8.07;4.53;;;;;;;4.41;91.12;99981.81;4859437;29;20381;-81
2022/12/08 08:07:44;;;;;;;9.90;5.47;;;;;;;4.50;90.77;99985.84;4877701;29;20064;-81
2022/12/08 08:10:57;;;;;;;12.27;7.32;;;;;;;4.29;91.27;99982.25;4860365;29;20102;-81
2022/12/08 08:14:08;;;;;;;14.75;9.55;;;;;;;4.28;90.19;99979.75;4859035;29;20048;-81
2022/12/08 08:17:15;;;;;;;10.48;6.05;;;;;;;4.25;91.58;99988.44;4861009;29;20404;-82
2022/12/08 08:20:36;;;;;;;21.27;11.43;;;;;;;4.36;90.65;99981.13;4875013;29;20093;-82
2022/12/08 08:23:42;;;;;;;18.83;10.13;;;;;;;4.51;90.59;99986.69;4871994;29;20048;-81
2022/12/08 08:27:03;;;;;;;13.75;10.35;;;;;;;4.60;90.59;99991.53;4887349;29;20120;-82
2022/12/08 08:30:41;;;;;;;10.82;7.55;;;;;;;4.44;91.20;99991.22;4884728;29;20096;-81
2022/12/08 08:37:46;;;;;;;8.48;6.65;;;;;;;4.19;89.44;99986.06;4895238;29;20050;-83
2022/12/08 08:40:52;;;;;;;12.68;6.60;;;;;;;4.40;89.13;99984.44;4883016;29;20095;-84
2022/12/08 08:47:48;;;;;;;10.45;6.13;;;;;;;4.50;84.64;99984.97;4887755;29;20052;-83
2022/12/08 08:50:57;;;;;;;12.57;6.47;;;;;;;4.72;84.46;99985.03;4873367;29;20071;-84
2022/12/08 08:54:03;;;;;;;9.35;4.93;;;;;;;4.74;83.43;99989.25;4863918;29;20727;-82
2022/12/08 08:57:28;;;;;;;9.80;5.40;;;;;;;4.73;83.27;99987.59;4884792;29;20132;-84
2022/12/08 09:01:04;;;;;;;7.47;4.90;;;;;;;4.93;82.90;99984.25;4893434;29;20408;-83
2022/12/08 09:04:17;;;;;;;7.85;4.63;;;;;;;4.86;82.47;99983.63;4884681;29;20389;-84
2022/12/08 09:07:23;;;;;;;7.95;4.82;;;;;;;4.80;80.78;99976.09;4882260;29;20113;-83
2022/12/08 09:10:38;;;;;;;10.27;5.57;;;;;;;4.55;80.81;99967.53;4875791;29;20380;-85
2022/12/08 09:13:56;;;;;;;5.40;3.78;;;;;;;4.23;80.63;99976.44;4876693;29;20469;-86
2022/12/08 09:17:00;;;;;;;7.05;4.25;;;;;;;4.34;80.91;99979.50;4877405;29;20466;-86
2022/12/08 09:20:42;;;;;;;7.95;4.70;;;;;;;4.54;80.56;99976.22;4876884;29;20177;-85
2022/12/08 09:23:58;;;;;;;9.55;5.43;;;;;;;4.50;82.07;99984.97;4879873;29;20089;-83
2022/12/08 09:31:15;;;;;;;13.25;6.32;;;;;;;4.48;80.00;99984.19;4939409;23;20479;-84
2022/12/08 09:34:19;;;;;;;10.90;6.25;;;;;;;4.56;80.05;99984.75;4932210;29;20039;-83
2022/12/08 09:37:23;;;;;;;8.48;5.35;;;;;;;4.69;78.90;99988.59;4932711;29;20102;-83
2022/12/08 09:40:35;;;;;;;7.68;4.28;;;;;;;4.56;79.53;99990.81;4932677;29;20053;-83
2022/12/08 09:44:04;;;;;;;7.78;5.20;;;;;;;4.57;80.37;99987.31;4933514;29;20046;-84
2022/12/08 09:47:30;;;;;;;8.95;4.93;;;;;;;4.59;79.72;99980.31;4924398;29;20095;-85
2022/12/08 09:50:39;;;;;;;7.00;4.60;;;;;;;4.43;80.27;99985.22;4903401;29;20238;-85
2022/12/08 09:54:13;;;;;;;5.85;3.55;;;;;;;4.42;79.77;99983.50;4916093;29;20099;-84
2022/12/08 09:57:51;;;;;;;7.45;4.30;;;;;;;4.72;79.44;99985.03;4897441;29;20054;-89
2022/12/08 10:01:01;;;;;;;32.40;12.00;;;;;;;4.76;79.08;99977.13;4896245;29;20052;-83
2022/12/08 10:04:35;;;;;;;12.90;7.13;;;;;;;4.55;79.10;99973.56;4897146;29;20077;-80
2022/12/08 10:08:13;;;;;;;4.95;3.10;;;;;;;4.46;79.63;99965.28;4887475;29;20127;-83
2022/12/08 10:11:26;;;;;;;7.35;3.65;;;;;;;4.64;79.26;99964.63;4896394;29;20115;-83
2022/12/08 10:14:40;;;;;;;11.73;6.60;;;;;;;4.80;79.15;99957.97;4896595;29;20083;-83
2022/12/08 10:17:55;;;;;;;7.45;5.15;;;;;;;4.82;78.65;99971.72;4896584;29;20510;-83
2022/12/08 10:21:24;;;;;;;7.53;3.38;;;;;;;4.48;78.22;99966.06;4896676;29;20108;-83
2022/12/08 10:24:47;;;;;;;6.70;3.95;;;;;;;4.63;78.70;99968.13;4910942;29;20073;-79
2022/12/08 10:27:53;;;;;;;5.30;3.28;;;;;;;4.34;78.46;99961.38;4921609;29;20047;-85
2022/12/08 10:31:33;;;;;;;8.55;3.25;;;;;;;4.45;78.51;99948.06;4921403;29;20134;-85
2022/12/08 10:35:06;;;;;;;9.10;3.78;;;;;;;4.61;77.50;99951.78;4900255;29;20129;-85
2022/12/08 10:38:19;;;;;;;5.60;3.42;;;;;;;4.46;78.87;99944.56;4881433;29;20055;-82
2022/12/08 10:41:23;;;;;;;5.70;3.03;;;;;;;4.27;78.51;99937.47;4900835;29;20062;-82
2022/12/08 10:44:27;;;;;;;6.13;3.30;;;;;;;4.59;79.07;99935.44;4916678;29;20100;-85
2022/12/08 10:47:36;;;;;;;6.55;3.25;;;;;;;4.61;77.92;99925.88;4916830;29;20082;-85
2022/12/08 10:50:53;;;;;;;5.25;2.95;;;;;;;4.48;77.46;99927.25;4917234;29;20123;-83
2022/12/08 10:53:56;;;;;;;7.25;3.17;;;;;;;4.57;76.94;99926.91;4917714;29;20474;-83
2022/12/08 10:57:00;;;;;;;;;;;;;;;4.75;78.10;99921.00;4917898;29;20561;-82
2022/12/08 11:00:05;;;;;;;6.35;3.30;;;;;;;4.95;77.44;99922.88;4917254;29;19921;-84
2022/12/08 11:03:27;;;;;;;7.07;3.90;;;;;;;4.95;76.48;99911.66;4912173;29;20080;-83
2022/12/08 11:06:34;;;;;;;6.38;3.45;;;;;;;4.68;76.86;99916.97;4918159;29;20046;-78
2022/12/08 11:09:47;;;;;;;7.47;4.53;;;;;;;4.38;77.95;99917.22;4920643;29;20102;-78
2022/12/08 11:12:52;;;;;;;7.82;3.95;;;;;;;4.69;77.89;99912.63;4902397;29;20132;-80
2022/12/08 11:15:56;;;;;;;6.18;3.65;;;;;;;4.70;78.30;99910.00;4900977;29;20055;-79
2022/12/08 11:19:10;;;;;;;8.57;3.45;;;;;;;5.12;78.52;99912.66;4902519;29;20468;-79
2022/12/08 11:22:21;;;;;;;7.82;3.95;;;;;;;5.21;77.17;99903.69;4902920;29;20442;-79
2022/12/08 11:25:26;;;;;;;12.95;7.97;;;;;;;5.39;76.60;99901.25;4902785;29;20518;-79
2022/12/08 11:28:30;;;;;;;6.47;4.13;;;;;;;5.56;76.35;99891.03;4902575;29;20046;-79
2022/12/08 11:31:40;;;;;;;4.40;3.10;;;;;;;5.60;75.39;99897.78;4902197;29;20163;-79
2022/12/08 11:34:46;;;;;;;5.38;3.22;;;;;;;5.58;75.27;99894.41;4902417;29;20055;-79
2022/12/08 11:37:54;;;;;;;6.47;3.90;;;;;;;5.76;74.78;99883.25;4899232;29;20114;-80
2022/12/08 11:41:15;;;;;;;8.32;4.28;;;;;;;5.62;73.58;99880.41;4899457;29;20058;-79
2022/12/08 11:44:46;;;;;;;9.00;3.53;;;;;;;5.58;74.68;99884.03;4916587;29;20091;-79
2022/12/08 11:48:22;;;;;;;7.75;3.90;;;;;;;5.53;74.16;99880.78;4899027;29;20055;-79
2022/12/08 11:51:41;;;;;;;5.45;2.97;;;;;;;5.28;73.71;99880.97;4897017;29;20148;-79
2022/12/08 11:54:51;;;;;;;5.82;3.10;;;;;;;5.29;74.92;99882.63;4912087;29;20086;-78
2022/12/08 11:57:59;;;;;;;6.65;3.30;;;;;;;5.26;74.68;99873.22;4916174;29;20076;-74
2022/12/08 12:01:02;;;;;;;10.40;6.75;;;;;;;5.35;74.65;99872.03;4916182;29;20527;-75
2022/12/08 12:04:16;;;;;;;6.65;3.60;;;;;;;5.26;73.58;99874.97;4916534;29;20562;-74
2022/12/08 12:07:38;;;;;;;;;;;;;;;5.27;75.30;99874.94;4918052;29;20525;-74
2022/12/08 12:11:00;;;;;;;8.05;5.25;;;;;;;5.16;75.99;99876.25;4917895;29;19962;-78
2022/12/08 12:14:40;;;;;;;7.60;4.03;;;;;;;5.31;74.70;99871.31;4917568;29;20513;-77
2022/12/08 12:17:51;;;;;;;6.47;2.60;;;;;;;5.48;73.22;99867.16;4917357;29;20046;-75
2022/12/08 12:20:57;;;;;;;5.80;3.30;;;;;;;5.56;73.21;99865.09;4917715;29;20066;-75
2022/12/08 12:24:16;;;;;;;14.07;4.15;;;;;;;5.39;73.20;99863.19;4917283;29;20051;-74
2022/12/08 12:27:38;;;;;;;5.72;2.65;;;;;;;5.23;73.73;99859.56;4917029;29;20137;-79
2022/12/08 12:31:17;;;;;;;4.68;2.90;;;;;;;4.83;73.67;99864.59;4916218;29;20569;-80
2022/12/08 12:34:30;;;;;;;4.30;2.80;;;;;;;4.86;73.97;99864.47;4907292;29;20051;-80
2022/12/08 12:37:37;;;;;;;6.85;3.40;;;;;;;4.99;73.90;99854.47;4917242;29;20047;-78
2022/12/08 12:40:43;;;;;;;4.80;2.78;;;;;;;4.85;74.65;99844.66;4917106;29;20117;-81
2022/12/08 12:44:22;;;;;;;4.40;2.42;;;;;;;5.11;74.45;99842.78;4916941;29;20059;-80
2022/12/08 12:47:46;;;;;;;5.72;2.97;;;;;;;5.39;73.12;99833.84;4916233;29;20047;-79
2022/12/08 12:50:54;;;;;;;5.45;3.35;;;;;;;4.99;73.98;99845.84;4917278;29;20054;-82
2022/12/08 12:54:20;;;;;;;8.85;3.90;;;;;;;5.14;73.13;99834.88;4916204;29;20131;-80
2022/12/08 12:57:36;;;;;;;5.47;3.47;;;;;;;5.36;73.20;99834.84;4917102;29;20137;-80
2022/12/08 13:00:40;;;;;;;7.30;3.53;;;;;;;5.66;71.77;99829.25;4916897;29;20086;-78
2022/12/08 13:04:33;;;;;;;8.73;4.15;;;;;;;5.74;71.85;99832.34;4916537;29;20047;-75
2022/12/08 13:07:49;;;;;;;17.25;7.50;;;;;;;5.58;72.12;99832.16;4858107;29;20094;-76
2022/12/08 13:11:08;;;;;;;19.88;6.90;;;;;;;5.34;72.90;99831.47;4865900;29;20129;-77
2022/12/08 13:14:31;;;;;;;17.55;13.57;;;;;;;5.15;73.04;99823.59;4916630;29;20099;-78
2022/12/08 13:18:01;;;;;;;10.68;7.88;;;;;;;5.19;73.11;99821.72;4914967;29;20055;-80
2022/12/08 13:21:09;;;;;;;11.07;7.70;;;;;;;5.42;72.95;99816.41;4916022;29;20100;-83
2022/12/08 13:24:34;;;;;;;7.88;4.45;;;;;;;5.40;73.58;99820.84;4910351;29;20107;-80
2022/12/08 13:27:52;;;;;;;5.28;3.00;;;;;;;5.45;73.69;99815.44;4914763;29;20068;-79
2022/12/08 13:31:01;;;;;;;8.55;5.53;;;;;;;5.60;73.47;99807.00;4911179;29;20168;-81
2022/12/08 13:34:46;;;;;;;8.05;4.72;;;;;;;5.31;73.29;99813.44;4915771;29;20553;-81
2022/12/08 13:37:50;;;;;;;4.53;3.13;;;;;;;5.42;72.97;99813.81;4916099;29;20114;-81
2022/12/08 13:40:56;;;;;;;5.25;3.42;;;;;;;5.43;74.35;99815.53;4896688;29;20573;-81
2022/12/08 13:44:06;;;;;;;7.18;3.58;;;;;;;5.39;76.30;99813.09;4906067;29;20120;-81
2022/12/08 13:47:14;;;;;;;6.65;4.47;;;;;;;5.41;76.47;99811.28;4896047;29;20149;-80
2022/12/08 13:50:40;;;;;;;9.05;4.18;;;;;;;5.40;77.25;99813.06;4896541;29;20044;-78
2022/12/08 13:53:58;;;;;;;7.53;4.90;;;;;;;5.43;75.84;99812.94;4933705;29;20054;-81
2022/12/08 13:57:06;;;;;;;7.15;4.07;;;;;;;5.44;74.83;99814.59;4934629;29;20129;-80
2022/12/08 14:00:19;;;;;;;7.88;4.15;;;;;;;5.40;76.41;99820.00;4934468;29;20045;-81
2022/12/08 14:03:24;;;;;;;7.00;4.10;;;;;;;5.23;75.75;99812.91;4934734;29;20054;-81
2022/12/08 14:06:37;;;;;;;8.95;2.97;;;;;;;5.03;71.88;99809.38;4934618;29;20148;-80
2022/12/08 14:09:41;;;;;;;10.50;2.95;;;;;;;5.07;71.02;99804.91;4934071;29;20098;-79
2022/12/08 14:12:46;;;;;;;4.75;2.47;;;;;;;4.78;71.93;99817.28;4933182;29;20074;-79
2022/12/08 14:15:51;;;;;;;6.05;3.40;;;;;;;4.74;72.58;99826.09;4934507;29;20050;-78
2022/12/08 14:19:03;;;;;;;6.25;3.42;;;;;;;4.82;73.37;99820.63;4933647;29;20542;-78
2022/12/08 14:22:07;;;;;;;9.30;4.10;;;;;;;5.07;75.05;99815.28;4933319;29;20062;-77
2022/12/08 14:25:13;;;;;;;;;;;;;;;5.12;74.91;99813.34;4934403;29;20051;-80
2022/12/08 14:28:17;;;;;;;5.40;2.60;;;;;;;5.13;76.70;99815.88;4924150;29;19922;-80
2022/12/08 14:31:21;;;;;;;4.45;2.95;;;;;;;5.16;77.04;99817.50;4914910;29;20059;-80
2022/12/08 14:34:26;;;;;;;4.22;2.40;;;;;;;5.19;76.84;99814.78;4915715;29;20095;-82
2022/12/08 14:37:43;;;;;;;5.40;2.15;;;;;;;5.19;77.58;99814.78;4915070;29;20106;-83
2022/12/08 14:41:07;;;;;;;3.95;2.50;;;;;;;5.19;78.14;99832.91;4915306;29;20112;-85
2022/12/08 14:44:23;;;;;;;8.27;6.43;;;;;;;4.37;75.86;99845.66;4914202;29;20482;-85
2022/12/08 14:47:36;;;;;;;3.30;2.40;;;;;;;4.40;76.26;99835.19;4913639;29;20148;-85
2022/12/08 14:50:44;;;;;;;3.90;1.50;;;;;;;4.77;75.37;99830.31;4915256;29;20139;-85
2022/12/08 14:54:12;;;;;;;3.53;1.60;;;;;;;4.96;77.47;99833.88;4914620;29;20051;-84
2022/12/08 14:57:15;;;;;;;6.50;1.52;;;;;;;4.73;80.59;99837.38;4914793;29;20111;-84
2022/12/08 15:00:20;;;;;;;3.00;1.30;;;;;;;4.80;79.66;99827.63;4914165;29;20072;-85
2022/12/08 15:03:27;;;;;;;4.82;1.83;;;;;;;4.77;81.18;99827.72;4914868;29;20051;-79
2022/12/08 15:06:31;;;;;;;3.33;1.60;;;;;;;4.63;81.85;99834.31;4906491;29;20130;-82
2022/12/08 15:09:49;;;;;;;5.75;2.20;;;;;;;4.73;82.42;99842.56;4918425;29;20035;-83
2022/12/08 15:13:12;;;;;;;4.97;1.20;;;;;;;4.58;81.48;99837.97;4896554;29;20043;-84
2022/12/08 15:16:28;;;;;;;3.17;1.27;;;;;;;4.49;81.91;99846.06;4897537;29;20075;-83
2022/12/08 15:19:33;;;;;;;5.63;1.00;;;;;;;4.60;82.92;99842.19;4899231;29;20053;-81
2022/12/08 15:22:37;;;;;;;5.20;1.20;;;;;;;4.43;83.24;99845.44;4901449;29;20091;-82
2022/12/08 15:25:41;;;;;;;2.92;0.90;;;;;;;4.40;83.45;99845.53;4912714;29;20119;-81
2022/12/08 15:28:44;;;;;;;4.75;2.00;;;;;;;4.41;83.19;99839.44;4914402;29;20549;-83
2022/12/08 15:31:48;;;;;;;;;;;;;;;4.68;82.89;99848.81;4917000;29;20055;-82
2022/12/08 15:34:51;;;;;;;2.83;1.15;;;;;;;4.44;83.74;99835.91;4912288;29;19922;-82
2022/12/08 15:37:55;;;;;;;5.32;1.48;;;;;;;4.29;84.57;99836.50;4909787;29;20071;-78
2022/12/08 15:41:04;;;;;;;5.82;1.48;;;;;;;4.38;84.30;99839.56;4913682;29;20502;-86